Time;durP1;ratioP1;P1;durP2;ratioP2;P2;SDS_P1;SDS_P2;PMS_P1;PMS_P2;Temp;Humidity;BMP_temperature;BMP_pressure;BME280_temperature;BME280_humidity;BME280_pressure;Samples;Min_cycle;Max_cycle;Signal;HPM_P1;HPM_P2
2022/04/07 00:02:05;;;;;;;5.93;4.35;;;9.60;99.90;;;;;;4982166;28;20204;-52
2022/04/07 00:04:33;;;;;;;6.40;5.45;;;9.70;99.90;;;;;;4981977;28;20208;-50
2022/04/07 00:07:03;;;;;;;4.95;4.32;;;9.80;99.90;;;;;;4982118;28;20232;-50
2022/04/07 00:09:30;;;;;;;5.82;4.63;;;9.90;99.90;;;;;;4981479;28;20204;-50
2022/04/07 00:11:57;;;;;;;8.07;4.68;;;10.20;99.90;;;;;;4981744;28;20204;-51
2022/04/07 00:14:25;;;;;;;4.63;4.18;;;10.30;99.90;;;;;;4981379;28;20227;-50
2022/04/07 00:16:52;;;;;;;6.45;4.78;;;10.30;99.90;;;;;;4982455;28;20564;-49
2022/04/07 00:19:22;;;;;;;4.60;4.05;;;10.30;99.90;;;;;;4982139;28;20234;-53
2022/04/07 00:21:49;;;;;;;5.60;4.97;;;10.10;99.90;;;;;;4982571;28;20191;-50
2022/04/07 00:24:17;;;;;;;5.40;4.30;;;10.10;99.90;;;;;;4981816;28;20206;-53
2022/04/07 00:26:44;;;;;;;3.60;3.05;;;10.20;99.90;;;;;;4981689;28;20276;-50
2022/04/07 00:29:11;;;;;;;4.35;3.95;;;10.40;99.90;;;;;;4982081;28;20199;-54
2022/04/07 00:31:42;;;;;;;3.90;3.35;;;10.10;99.90;;;;;;4981559;28;20210;-50
2022/04/07 00:34:10;;;;;;;7.13;3.85;;;10.10;99.90;;;;;;4982018;28;20208;-56
2022/04/07 00:36:38;;;;;;;4.93;3.63;;;9.80;99.90;;;;;;4981503;28;20260;-50
2022/04/07 00:39:06;;;;;;;6.40;4.15;;;9.80;99.90;;;;;;4981669;28;20203;-51
2022/04/07 00:41:37;;;;;;;5.10;4.60;;;9.90;99.90;;;;;;4981175;28;20230;-50
2022/04/07 00:44:08;;;;;;;4.45;3.78;;;9.90;99.90;;;;;;4982008;28;20238;-53
2022/04/07 00:46:39;;;;;;;4.28;3.67;;;9.80;99.90;;;;;;4981518;28;20484;-51
2022/04/07 00:49:07;;;;;;;4.28;3.90;;;9.80;99.90;;;;;;4981559;28;20255;-51
2022/04/07 00:51:38;;;;;;;4.18;3.55;;;9.90;99.90;;;;;;4981334;28;20210;-50
2022/04/07 00:54:06;;;;;;;5.00;4.20;;;9.60;99.90;;;;;;4984741;28;20217;-50
2022/04/07 00:56:35;;;;;;;4.72;3.85;;;9.60;99.90;;;;;;4985728;28;20491;-52
2022/04/07 00:59:06;;;;;;;4.50;4.10;;;9.60;99.90;;;;;;4985230;28;20441;-51
2022/04/07 01:01:33;;;;;;;4.35;3.53;;;9.70;99.90;;;;;;4985252;28;20227;-49
2022/04/07 01:04:01;;;;;;;4.45;3.33;;;9.60;99.90;;;;;;4985219;28;20223;-50
2022/04/07 01:06:29;;;;;;;5.13;3.50;;;9.50;99.90;;;;;;4985386;28;20216;-49
2022/04/07 01:08:59;;;;;;;4.03;3.63;;;9.60;99.90;;;;;;4985344;28;20239;-54
2022/04/07 01:11:28;;;;;;;4.97;4.47;;;9.60;99.90;;;;;;4986069;28;20215;-51
2022/04/07 01:13:56;;;;;;;5.35;4.85;;;9.60;99.90;;;;;;4985712;28;20432;-48
2022/04/07 01:16:27;;;;;;;4.30;3.90;;;9.70;99.90;;;;;;4985244;28;20206;-49
2022/04/07 01:18:57;;;;;;;4.68;3.50;;;9.80;99.90;;;;;;4984472;28;20541;-56
2022/04/07 01:21:30;;;;;;;6.32;3.58;;;9.90;99.90;;;;;;4988959;28;20239;-53
2022/04/07 01:24:12;;;;;;;3.83;3.42;;;10.00;99.90;;;;;;4989827;28;20209;-51
2022/04/07 01:26:43;;;;;;;5.25;4.22;;;10.10;99.90;;;;;;4985366;28;20208;-53
2022/04/07 01:29:14;;;;;;;4.57;3.67;;;10.20;99.90;;;;;;4986174;28;20210;-52
2022/04/07 01:31:42;;;;;;;5.55;3.63;;;10.20;99.90;;;;;;4984458;28;20399;-49
2022/04/07 01:34:16;;;;;;;5.15;4.20;;;10.20;99.90;;;;;;4984795;28;20209;-54
2022/04/07 01:36:47;;;;;;;5.32;3.75;;;10.30;99.90;;;;;;4985045;28;20203;-53
2022/04/07 01:39:21;;;;;;;3.60;3.17;;;10.10;99.90;;;;;;4985082;28;20219;-50
2022/04/07 01:41:50;;;;;;;4.40;3.53;;;10.20;99.90;;;;;;4983732;28;20220;-52
2022/04/07 01:44:19;;;;;;;5.38;3.65;;;10.20;99.90;;;;;;4984338;28;20203;-52
2022/04/07 01:46:47;;;;;;;4.53;3.22;;;10.00;99.90;;;;;;4984670;28;20527;-52
2022/04/07 01:49:16;;;;;;;4.82;4.15;;;10.00;99.90;;;;;;4984180;28;20240;-53
2022/04/07 01:51:44;;;;;;;5.57;4.40;;;10.00;99.90;;;;;;4984433;28;20208;-53
2022/04/07 01:54:14;;;;;;;4.32;3.92;;;10.00;99.90;;;;;;4983973;28;20204;-50
2022/04/07 01:56:43;;;;;;;4.07;3.70;;;9.90;99.90;;;;;;4984526;28;20419;-52
2022/04/07 01:59:10;;;;;;;7.30;5.47;;;9.90;99.90;;;;;;4984152;28;20211;-52
2022/04/07 02:01:38;;;;;;;3.88;3.42;;;9.90;99.90;;;;;;4984330;28;20224;-53
2022/04/07 02:04:05;;;;;;;4.85;3.58;;;10.10;99.90;;;;;;4984333;28;20200;-53
2022/04/07 02:06:32;;;;;;;4.22;3.13;;;10.00;99.90;;;;;;4982574;28;20434;-54
2022/04/07 02:09:00;;;;;;;3.00;2.70;;;9.90;99.90;;;;;;4983968;28;20268;-52
2022/04/07 02:11:28;;;;;;;4.55;4.15;;;9.90;99.90;;;;;;4983382;28;20212;-53
2022/04/07 02:13:55;;;;;;;4.88;4.20;;;9.90;99.90;;;;;;4984693;28;20210;-51
2022/04/07 02:16:24;;;;;;;3.97;3.50;;;9.60;99.90;;;;;;4983774;28;20215;-50
2022/04/07 02:18:53;;;;;;;3.55;3.22;;;9.50;99.90;;;;;;4983507;28;20223;-56
2022/04/07 02:21:20;;;;;;;4.60;2.67;;;9.60;99.90;;;;;;4983762;28;20220;-49
2022/04/07 02:23:48;;;;;;;3.80;3.17;;;9.70;99.90;;;;;;4983847;28;20230;-52
2022/04/07 02:26:17;;;;;;;3.67;3.38;;;9.50;99.90;;;;;;4983747;28;20199;-55
2022/04/07 02:28:44;;;;;;;6.25;3.72;;;9.50;99.90;;;;;;4983393;28;20223;-52
2022/04/07 02:31:12;;;;;;;9.68;4.43;;;9.40;99.90;;;;;;4983702;28;20204;-51
2022/04/07 02:33:40;;;;;;;4.32;3.45;;;9.50;99.90;;;;;;4983365;28;20203;-52
2022/04/07 02:36:09;;;;;;;5.53;3.60;;;9.60;99.90;;;;;;4984044;28;20249;-53
2022/04/07 02:38:37;;;;;;;5.03;3.97;;;9.50;99.90;;;;;;4983759;28;20615;-51
2022/04/07 02:41:05;;;;;;;6.07;3.95;;;9.70;99.90;;;;;;4983856;28;20359;-51
2022/04/07 02:43:32;;;;;;;4.97;3.67;;;9.80;99.90;;;;;;4983405;28;20238;-50
2022/04/07 02:45:59;;;;;;;20.50;6.55;;;9.90;99.90;;;;;;4983933;28;20442;-51
2022/04/07 02:48:27;;;;;;;3.70;3.42;;;9.90;99.90;;;;;;4983031;28;20226;-54
2022/04/07 02:50:55;;;;;;;5.20;4.60;;;10.00;99.90;;;;;;4983554;28;20204;-54
2022/04/07 02:53:25;;;;;;;4.15;3.60;;;10.10;99.90;;;;;;4983222;28;20536;-49
2022/04/07 02:55:55;;;;;;;6.05;3.63;;;9.70;99.90;;;;;;4983614;28;20243;-50
2022/04/07 02:58:24;;;;;;;4.47;3.60;;;9.60;99.90;;;;;;4976080;28;20219;-54
2022/04/07 03:00:52;;;;;;;3.40;3.10;;;9.60;99.90;;;;;;4982626;28;20252;-53
2022/04/07 03:03:19;;;;;;;4.72;3.50;;;9.70;99.90;;;;;;4982865;28;20223;-51
2022/04/07 03:05:46;;;;;;;5.18;4.63;;;9.50;99.90;;;;;;4983038;28;20200;-55
2022/04/07 03:08:14;;;;;;;5.72;3.67;;;9.60;99.90;;;;;;4982853;28;20232;-51
2022/04/07 03:10:41;;;;;;;4.20;3.90;;;9.40;99.90;;;;;;4981893;28;20202;-50
2022/04/07 03:13:09;;;;;;;5.45;3.53;;;9.40;99.90;;;;;;4982863;28;20203;-51
2022/04/07 03:15:36;;;;;;;6.95;4.47;;;9.40;99.90;;;;;;4981894;28;20288;-53
2022/04/07 03:18:04;;;;;;;5.22;3.63;;;9.10;99.90;;;;;;4981580;28;20278;-51
2022/04/07 03:20:31;;;;;;;4.72;3.70;;;9.20;99.90;;;;;;4982591;28;20226;-52
2022/04/07 03:22:58;;;;;;;5.30;4.35;;;9.20;99.90;;;;;;4982425;28;20234;-50
2022/04/07 03:25:26;;;;;;;5.72;4.10;;;9.30;99.90;;;;;;4982694;28;20198;-53
2022/04/07 03:27:56;;;;;;;4.60;4.13;;;9.30;99.90;;;;;;4982201;28;20225;-53
2022/04/07 03:30:23;;;;;;;6.95;5.10;;;9.40;99.90;;;;;;4982773;28;20257;-52
2022/04/07 03:32:51;;;;;;;6.20;5.65;;;9.00;99.90;;;;;;4982928;28;20210;-50
2022/04/07 03:35:22;;;;;;;6.25;4.05;;;8.70;99.90;;;;;;4982400;28;20202;-53
2022/04/07 03:37:50;;;;;;;7.80;6.18;;;8.80;99.90;;;;;;4982717;28;20451;-50
2022/04/07 03:40:17;;;;;;;7.25;5.60;;;8.70;99.90;;;;;;4982210;28;20224;-51
2022/04/07 03:42:46;;;;;;;7.20;4.68;;;8.60;99.90;;;;;;4982489;28;20206;-52
2022/04/07 03:45:14;;;;;;;6.05;4.85;;;8.50;99.90;;;;;;4982189;28;20244;-53
2022/04/07 03:47:41;;;;;;;7.80;6.53;;;8.60;99.90;;;;;;4982191;28;20222;-52
2022/04/07 03:50:10;;;;;;;6.97;5.50;;;8.50;99.90;;;;;;4981862;28;20201;-49
2022/04/07 03:52:38;;;;;;;5.22;4.68;;;8.50;99.90;;;;;;4982113;28;20206;-52
2022/04/07 03:55:05;;;;;;;6.80;5.63;;;8.50;99.90;;;;;;4982069;28;20207;-54
2022/04/07 03:57:33;;;;;;;5.40;4.90;;;8.30;99.90;;;;;;4981728;28;20533;-51
2022/04/07 04:00:00;;;;;;;6.70;6.10;;;8.40;99.90;;;;;;4982477;28;20198;-52
2022/04/07 04:02:31;;;;;;;7.65;5.10;;;8.30;99.90;;;;;;4978542;28;20497;-50
2022/04/07 04:04:58;;;;;;;6.03;5.18;;;8.20;99.90;;;;;;4979347;28;20274;-54
2022/04/07 04:07:26;;;;;;;6.65;5.70;;;8.10;99.90;;;;;;4981473;28;20232;-53
2022/04/07 04:09:55;;;;;;;6.25;5.65;;;7.80;99.90;;;;;;4982331;28;20229;-49
2022/04/07 04:12:22;;;;;;;7.10;6.28;;;8.00;99.90;;;;;;4981962;28;20374;-54
2022/04/07 04:14:49;;;;;;;7.85;6.80;;;7.90;99.90;;;;;;4982027;28;20421;-52
2022/04/07 04:17:17;;;;;;;6.95;6.35;;;8.00;99.90;;;;;;4981894;28;20222;-52
2022/04/07 04:19:44;;;;;;;6.72;6.05;;;8.00;99.90;;;;;;4981778;28;20206;-49
2022/04/07 04:22:12;;;;;;;7.15;6.20;;;8.20;99.90;;;;;;4981804;28;20230;-52
2022/04/07 04:24:39;;;;;;;7.63;6.45;;;8.10;99.90;;;;;;4978958;28;20211;-51
2022/04/07 04:27:11;;;;;;;9.52;6.35;;;8.10;99.90;;;;;;4980018;28;20218;-53
2022/04/07 04:29:40;;;;;;;6.28;5.45;;;8.00;99.90;;;;;;4980585;28;20241;-50
2022/04/07 04:32:07;;;;;;;7.57;6.30;;;8.10;99.90;;;;;;4980814;28;20337;-55
2022/04/07 04:34:35;;;;;;;6.32;5.72;;;8.10;99.90;;;;;;4981373;28;20312;-54
2022/04/07 04:37:03;;;;;;;11.43;5.90;;;8.00;99.90;;;;;;4982322;28;20222;-51
2022/04/07 04:39:36;;;;;;;5.93;4.75;;;8.00;99.90;;;;;;4984053;28;20613;-49
2022/04/07 04:42:05;;;;;;;7.90;5.75;;;8.10;99.90;;;;;;4964433;28;20228;-51
2022/04/07 04:44:33;;;;;;;9.10;5.75;;;8.10;99.90;;;;;;4962620;28;20352;-48
2022/04/07 04:47:00;;;;;;;9.68;5.78;;;8.20;99.90;;;;;;4978559;28;20477;-49
2022/04/07 04:49:29;;;;;;;5.18;4.45;;;8.20;99.90;;;;;;4975262;28;20198;-51
2022/04/07 04:51:57;;;;;;;7.35;4.57;;;8.40;99.90;;;;;;4980644;28;20206;-51
2022/04/07 04:54:24;;;;;;;4.35;3.80;;;8.50;99.90;;;;;;4980754;28;20269;-55
2022/04/07 04:56:51;;;;;;;5.07;4.30;;;8.70;99.90;;;;;;4980794;28;20636;-51
2022/04/07 04:59:18;;;;;;;4.78;4.38;;;8.80;99.90;;;;;;4971984;28;20409;-52
2022/04/07 05:01:45;;;;;;;4.20;3.80;;;9.00;99.90;;;;;;4980993;28;20234;-50
2022/04/07 05:04:14;;;;;;;4.10;3.72;;;9.20;99.90;;;;;;4980784;28;20217;-56
2022/04/07 05:06:47;;;;;;;8.23;5.25;;;9.30;99.90;;;;;;4982263;28;20583;-55
2022/04/07 05:09:14;;;;;;;4.95;4.47;;;9.40;99.90;;;;;;4980531;28;20200;-50
2022/04/07 05:11:42;;;;;;;3.88;3.50;;;9.50;99.90;;;;;;4979811;28;20261;-56
2022/04/07 05:14:12;;;;;;;4.30;3.90;;;9.50;99.90;;;;;;4979893;28;20211;-54
2022/04/07 05:16:39;;;;;;;6.13;3.67;;;9.50;99.90;;;;;;4979619;28;20246;-52
2022/04/07 05:19:06;;;;;;;5.90;5.13;;;9.60;99.90;;;;;;4981312;28;20563;-50
2022/04/07 05:21:34;;;;;;;5.53;3.58;;;9.90;99.90;;;;;;4979826;28;20263;-51
2022/04/07 05:24:01;;;;;;;4.15;3.28;;;10.00;99.90;;;;;;4980692;28;20240;-52
2022/04/07 05:26:29;;;;;;;3.78;3.53;;;10.00;99.90;;;;;;4980342;28;20198;-50
2022/04/07 05:28:56;;;;;;;4.60;4.20;;;9.90;99.90;;;;;;4980819;28;20274;-48
2022/04/07 05:31:24;;;;;;;4.05;3.35;;;10.10;99.90;;;;;;4981691;28;20229;-53
2022/04/07 05:33:52;;;;;;;6.80;5.47;;;10.20;99.90;;;;;;4984053;28;20243;-51
2022/04/07 05:36:19;;;;;;;12.45;4.65;;;10.30;99.90;;;;;;4985565;28;20204;-55
2022/04/07 05:38:46;;;;;;;5.05;4.30;;;10.20;99.90;;;;;;4983337;28;20248;-51
2022/04/07 05:41:14;;;;;;;9.43;4.03;;;10.40;99.90;;;;;;4985069;28;20232;-54
2022/04/07 05:43:42;;;;;;;3.90;3.58;;;10.60;99.90;;;;;;4984655;28;20324;-50
2022/04/07 05:46:11;;;;;;;6.63;4.40;;;10.80;99.90;;;;;;4984590;28;20276;-53
2022/04/07 05:48:38;;;;;;;3.88;3.08;;;10.80;99.90;;;;;;4984531;28;20711;-52
2022/04/07 05:51:08;;;;;;;4.30;3.90;;;10.70;99.90;;;;;;4984771;28;20205;-50
2022/04/07 05:53:36;;;;;;;4.90;4.00;;;10.80;99.90;;;;;;4984658;28;20232;-52
2022/04/07 05:56:05;;;;;;;3.88;3.47;;;10.90;99.90;;;;;;4984181;28;20519;-51
2022/04/07 05:58:33;;;;;;;3.83;3.10;;;11.00;99.90;;;;;;4984328;28;20562;-50
2022/04/07 06:01:00;;;;;;;8.02;4.63;;;11.10;99.90;;;;;;4984023;28;20258;-50
2022/04/07 06:03:27;;;;;;;4.20;3.80;;;11.30;99.90;;;;;;4983725;28;20509;-52
2022/04/07 06:05:54;;;;;;;3.95;3.50;;;11.50;99.90;;;;;;4984203;28;20264;-49
2022/04/07 06:08:22;;;;;;;3.45;3.15;;;11.70;99.90;;;;;;4983717;28;20284;-53
2022/04/07 06:10:49;;;;;;;6.82;3.58;;;11.80;99.90;;;;;;4983855;28;20205;-52
2022/04/07 06:13:17;;;;;;;3.05;2.75;;;11.80;99.90;;;;;;4983723;28;20202;-50
2022/04/07 06:15:45;;;;;;;4.38;3.90;;;11.80;99.90;;;;;;4983696;28;20205;-52
2022/04/07 06:18:13;;;;;;;8.32;4.47;;;12.00;99.90;;;;;;4983603;28;20219;-50
2022/04/07 06:20:41;;;;;;;8.90;3.70;;;12.30;99.90;;;;;;4984072;28;20505;-53
2022/04/07 06:23:09;;;;;;;9.98;3.55;;;12.30;99.90;;;;;;4984068;28;20237;-54
2022/04/07 06:25:36;;;;;;;3.25;2.95;;;12.30;99.90;;;;;;4983787;28;20505;-54
2022/04/07 06:28:04;;;;;;;7.18;3.80;;;12.50;99.90;;;;;;4983359;28;20221;-55
2022/04/07 06:30:31;;;;;;;4.80;3.40;;;12.60;99.90;;;;;;4983174;28;20206;-54
2022/04/07 06:32:59;;;;;;;3.70;3.13;;;13.20;99.90;;;;;;4983088;28;20199;-55
2022/04/07 06:35:27;;;;;;;3.83;3.47;;;14.50;99.90;;;;;;4983481;28;20202;-50
2022/04/07 06:37:58;;;;;;;4.25;3.40;;;15.10;99.90;;;;;;4983681;28;20245;-51
2022/04/07 06:40:27;;;;;;;4.65;2.78;;;15.40;99.90;;;;;;4983176;28;20202;-53
2022/04/07 06:42:57;;;;;;;7.33;3.57;;;16.40;99.90;;;;;;4983187;28;20356;-55
2022/04/07 06:45:27;;;;;;;4.13;3.80;;;16.90;99.90;;;;;;4982186;28;20561;-51
2022/04/07 06:47:55;;;;;;;10.80;3.90;;;17.20;99.90;;;;;;4983501;28;20773;-57
2022/04/07 06:50:25;;;;;;;6.20;3.73;;;17.80;99.90;;;;;;4982210;28;20437;-56
2022/04/07 06:52:55;;;;;;;5.17;2.87;;;18.60;99.90;;;;;;4983270;28;20413;-55
2022/04/07 06:55:22;;;;;;;3.67;3.17;;;19.90;99.90;;;;;;4982712;28;20443;-56
2022/04/07 06:57:57;;;;;;;4.23;3.00;;;21.30;99.90;;;;;;4983095;28;20436;-54
2022/04/07 07:00:45;;;;;;;3.90;2.60;;;22.90;99.90;;;;;;4982769;28;20453;-53
2022/04/07 07:03:16;;;;;;;4.30;2.17;;;22.90;99.90;;;;;;4982526;28;20475;-55
2022/04/07 07:05:43;;;;;;;3.27;2.97;;;23.90;98.40;;;;;;4983199;28;20402;-52
2022/04/07 07:08:19;;;;;;;2.60;1.93;;;24.10;95.40;;;;;;4982473;28;20508;-55
2022/04/07 07:10:50;;;;;;;3.67;2.70;;;23.20;95.90;;;;;;4982664;28;20421;-56
2022/04/07 07:13:22;;;;;;;3.70;2.53;;;22.70;97.40;;;;;;4982308;28;20742;-53
2022/04/07 07:15:52;;;;;;;8.27;2.77;;;20.80;99.60;;;;;;4982488;28;20408;-52
2022/04/07 07:18:20;;;;;;;5.23;2.17;;;19.40;99.90;;;;;;4982370;28;20541;-54
2022/04/07 07:20:47;;;;;;;2.00;1.80;;;19.60;99.90;;;;;;4982881;28;20421;-51
2022/04/07 07:23:15;;;;;;;5.37;3.23;;;19.00;99.90;;;;;;4982652;28;20530;-53
2022/04/07 07:25:43;;;;;;;4.63;3.13;;;18.10;99.90;;;;;;4982533;28;20466;-51
2022/04/07 07:28:10;;;;;;;2.40;2.20;;;17.70;99.90;;;;;;4982459;28;20455;-53
2022/04/07 07:30:37;;;;;;;6.70;3.30;;;17.20;99.90;;;;;;4982191;28;20426;-52
2022/04/07 07:33:05;;;;;;;3.73;2.90;;;17.20;99.90;;;;;;4982720;28;20418;-56
2022/04/07 07:35:36;;;;;;;2.37;2.17;;;17.80;99.90;;;;;;4982311;28;20426;-54
2022/04/07 07:38:03;;;;;;;7.70;2.60;;;18.20;99.90;;;;;;4982243;28;20694;-56
2022/04/07 07:40:32;;;;;;;2.40;2.20;;;20.10;99.90;;;;;;4982024;28;20423;-53
2022/04/07 07:43:01;;;;;;;8.13;2.00;;;20.10;99.90;;;;;;4982112;28;20457;-51
2022/04/07 07:45:31;;;;;;;2.30;2.10;;;20.10;99.90;;;;;;4981906;28;20713;-55
2022/04/07 07:48:32;;;;;;;2.80;2.60;;;19.40;99.90;;;;;;4982127;28;20427;-53
2022/04/07 07:51:00;;;;;;;2.87;1.97;;;18.90;99.90;;;;;;4982500;28;20738;-58
2022/04/07 07:53:30;;;;;;;2.27;2.07;;;20.20;99.90;;;;;;4981976;28;20600;-53
2022/04/07 07:55:57;;;;;;;2.80;2.50;;;20.50;99.90;;;;;;4982069;28;20416;-55
2022/04/07 07:58:26;;;;;;;2.47;2.10;;;19.50;99.90;;;;;;4981671;28;20459;-51
2022/04/07 08:00:54;;;;;;;3.63;1.83;;;20.10;99.90;;;;;;4981953;28;20411;-52
2022/04/07 08:03:22;;;;;;;1.80;1.70;;;21.80;99.90;;;;;;4981413;28;20476;-55
2022/04/07 08:05:51;;;;;;;2.23;1.60;;;21.80;99.90;;;;;;4981977;28;20483;-53
2022/04/07 08:08:18;;;;;;;1.67;1.10;;;21.00;99.90;;;;;;4981268;28;20466;-53
2022/04/07 08:10:45;;;;;;;5.67;1.83;;;20.20;99.90;;;;;;4981961;28;20645;-54
2022/04/07 08:13:12;;;;;;;2.90;2.00;;;20.10;99.90;;;;;;4981359;28;20464;-52
2022/04/07 08:15:39;;;;;;;2.53;1.70;;;21.20;99.90;;;;;;4981522;28;20456;-56
2022/04/07 08:18:08;;;;;;;1.80;1.70;;;21.70;99.90;;;;;;4981558;28;20458;-50
2022/04/07 08:20:35;;;;;;;3.50;2.40;;;21.80;99.70;;;;;;4981442;28;20554;-54
2022/04/07 08:23:02;;;;;;;2.57;1.93;;;21.30;99.90;;;;;;4981550;28;20483;-55
2022/04/07 08:25:29;;;;;;;2.00;1.90;;;21.40;99.90;;;;;;4981255;28;20442;-58
2022/04/07 08:27:56;;;;;;;2.60;1.90;;;21.70;99.90;;;;;;4981667;28;20513;-54
2022/04/07 08:30:23;;;;;;;3.73;1.73;;;22.10;99.90;;;;;;4981108;28;20855;-52
2022/04/07 08:32:50;;;;;;;1.70;1.60;;;22.20;99.90;;;;;;4981937;28;20420;-55
2022/04/07 08:35:17;;;;;;;3.23;2.10;;;21.10;99.90;;;;;;4981743;28;20647;-52
2022/04/07 08:37:45;;;;;;;3.80;1.60;;;20.60;99.90;;;;;;4981120;28;20457;-54
2022/04/07 08:40:16;;;;;;;1.73;1.40;;;21.40;99.90;;;;;;4981642;28;20479;-50
2022/04/07 08:42:43;;;;;;;2.77;2.43;;;21.50;99.80;;;;;;4981257;28;20444;-55
2022/04/07 08:45:10;;;;;;;1.43;1.27;;;21.80;98.50;;;;;;4982670;28;20513;-52
2022/04/07 08:47:39;;;;;;;1.50;1.40;;;20.90;99.30;;;;;;4980817;28;20453;-53
2022/04/07 08:50:07;;;;;;;2.57;1.47;;;20.80;99.10;;;;;;4981989;28;20434;-52
2022/04/07 08:52:35;;;;;;;2.87;1.70;;;20.80;99.90;;;;;;4980956;28;20744;-53
2022/04/07 08:55:03;;;;;;;3.07;2.33;;;21.30;99.20;;;;;;4981714;28;20517;-55
2022/04/07 08:57:32;;;;;;;1.53;1.40;;;21.90;98.90;;;;;;4981190;28;20458;-57
2022/04/07 08:59:59;;;;;;;2.30;1.80;;;21.90;97.80;;;;;;4981403;28;20446;-56
2022/04/07 09:02:26;;;;;;;2.53;1.70;;;21.90;96.80;;;;;;4981217;28;20482;-56
2022/04/07 09:04:59;;;;;;;2.10;1.90;;;22.10;97.80;;;;;;4981031;28;20413;-53
2022/04/07 09:07:33;;;;;;;1.67;1.53;;;22.50;96.20;;;;;;4981043;28;20718;-56
2022/04/07 09:10:02;;;;;;;8.33;1.83;;;23.10;96.50;;;;;;4981179;28;20443;-52
2022/04/07 09:12:30;;;;;;;1.77;1.57;;;23.10;95.80;;;;;;4985510;28;20436;-57
2022/04/07 09:14:59;;;;;;;6.03;2.00;;;24.00;93.30;;;;;;4991788;28;20435;-55
2022/04/07 09:17:27;;;;;;;2.70;2.20;;;24.10;93.00;;;;;;4990534;28;20479;-57
2022/04/07 09:19:54;;;;;;;2.40;1.33;;;24.00;93.00;;;;;;4987471;28;20775;-53
2022/04/07 09:22:32;;;;;;;1.57;1.47;;;24.40;92.90;;;;;;4985336;28;20484;-52
2022/04/07 09:25:09;;;;;;;2.23;1.40;;;24.20;92.00;;;;;;4985308;28;20436;-49
2022/04/07 09:27:41;;;;;;;2.87;2.00;;;22.90;92.90;;;;;;4984515;28;20879;-52
2022/04/07 09:30:09;;;;;;;1.77;1.50;;;21.70;94.50;;;;;;4984642;28;20453;-49
2022/04/07 09:32:43;;;;;;;1.90;1.60;;;20.80;95.20;;;;;;4983983;28;20450;-53
2022/04/07 09:35:11;;;;;;;1.70;1.50;;;20.50;96.50;;;;;;4984866;28;20680;-55
2022/04/07 09:37:42;;;;;;;2.40;1.63;;;20.70;96.80;;;;;;4984632;28;20454;-52
2022/04/07 09:40:10;;;;;;;1.87;1.50;;;21.30;96.20;;;;;;4986406;28;20648;-54
2022/04/07 09:42:41;;;;;;;1.63;1.40;;;21.00;94.80;;;;;;4985773;28;20472;-58
2022/04/07 09:45:14;;;;;;;2.27;1.40;;;20.90;96.30;;;;;;4985855;28;20407;-51
2022/04/07 09:47:46;;;;;;;1.33;1.23;;;21.10;95.10;;;;;;4985431;28;20456;-55
2022/04/07 09:50:19;;;;;;;1.70;1.60;;;20.60;94.90;;;;;;4987188;28;20428;-58
2022/04/07 09:52:56;;;;;;;1.30;1.17;;;20.10;96.50;;;;;;4985972;28;20479;-51
2022/04/07 09:55:28;;;;;;;1.93;1.67;;;19.60;97.00;;;;;;4985209;28;20459;-49
2022/04/07 09:57:56;;;;;;;3.03;1.57;;;19.10;97.40;;;;;;4989825;28;20487;-57
2022/04/07 10:00:25;;;;;;;4.00;1.30;;;18.60;97.60;;;;;;4991418;28;20432;-56
2022/04/07 10:02:54;;;;;;;1.70;1.60;;;18.60;98.40;;;;;;4990548;28;20454;-58
2022/04/07 10:05:22;;;;;;;1.50;1.40;;;18.50;98.80;;;;;;4991578;28;20439;-56
2022/04/07 10:07:50;;;;;;;1.30;1.20;;;18.30;99.20;;;;;;4989020;28;20469;-57
2022/04/07 10:10:19;;;;;;;1.80;1.70;;;18.60;98.90;;;;;;4985503;28;20482;-54
2022/04/07 10:12:46;;;;;;;1.60;1.10;;;19.20;99.00;;;;;;4984663;28;20487;-54
2022/04/07 10:15:16;;;;;;;1.27;1.17;;;19.40;97.30;;;;;;4984275;28;20448;-57
2022/04/07 10:17:44;;;;;;;1.33;1.00;;;19.60;97.30;;;;;;4983947;28;20434;-50
2022/04/07 10:20:14;;;;;;;1.63;1.53;;;19.40;97.80;;;;;;4984191;28;20898;-52
2022/04/07 10:23:05;;;;;;;1.70;1.53;;;19.40;98.30;;;;;;4983594;28;20487;-51
2022/04/07 10:25:39;;;;;;;2.07;1.60;;;19.10;98.70;;;;;;4983923;28;20415;-51
2022/04/07 10:28:07;;;;;;;1.47;1.13;;;19.10;98.90;;;;;;4983982;28;20444;-53
2022/04/07 10:30:50;;;;;;;1.43;1.13;;;18.80;99.50;;;;;;4983955;28;20507;-51
2022/04/07 10:33:38;;;;;;;1.10;1.00;;;18.80;99.70;;;;;;4983775;28;20415;-53
2022/04/07 10:36:15;;;;;;;4.07;1.50;;;18.60;99.90;;;;;;4984742;28;20697;-56
2022/04/07 10:38:49;;;;;;;1.83;1.73;;;18.40;99.50;;;;;;4984450;28;20459;-52
2022/04/07 10:41:37;;;;;;;2.03;1.83;;;18.40;99.90;;;;;;4983634;28;20792;-52
2022/04/07 10:44:12;;;;;;;4.57;1.80;;;18.30;99.90;;;;;;4983251;28;20454;-50
2022/04/07 10:46:40;;;;;;;2.13;1.93;;;18.30;99.90;;;;;;4981959;28;20406;-55
2022/04/07 10:49:09;;;;;;;1.33;1.03;;;18.10;99.90;;;;;;4983104;28;20433;-52
2022/04/07 10:51:42;;;;;;;1.00;0.90;;;17.90;99.90;;;;;;4983273;28;20439;-55
2022/04/07 10:54:12;;;;;;;1.00;1.00;;;18.00;99.90;;;;;;4983404;28;20586;-52
2022/04/07 10:56:45;;;;;;;1.13;0.90;;;18.10;99.90;;;;;;4982721;28;20410;-51
2022/04/07 10:59:27;;;;;;;1.83;1.37;;;18.20;99.90;;;;;;4983224;28;20449;-56
2022/04/07 11:02:12;;;;;;;1.47;1.37;;;18.20;99.50;;;;;;4982843;28;20456;-55
2022/04/07 11:04:58;;;;;;;1.70;1.53;;;18.40;99.30;;;;;;4983192;28;20428;-51
2022/04/07 11:07:25;;;;;;;1.20;1.10;;;18.50;99.80;;;;;;4983457;28;20455;-52
2022/04/07 11:10:00;;;;;;;2.47;1.00;;;18.50;99.90;;;;;;4983460;28;20425;-52
2022/04/07 11:12:39;;;;;;;2.43;1.53;;;18.70;99.90;;;;;;4982508;28;21099;-50
2022/04/07 11:15:16;;;;;;;0.90;0.80;;;18.70;99.30;;;;;;4983161;28;20438;-50
2022/04/07 11:17:43;;;;;;;3.70;1.33;;;18.70;99.30;;;;;;4982416;28;20460;-54
2022/04/07 11:20:25;;;;;;;1.67;1.43;;;18.60;99.30;;;;;;4982569;28;20682;-55
2022/04/07 11:23:09;;;;;;;2.43;1.03;;;18.40;99.70;;;;;;4982196;28;20522;-51
2022/04/07 11:25:43;;;;;;;1.10;0.90;;;18.50;98.70;;;;;;4971811;28;20920;-56
2022/04/07 11:28:25;;;;;;;0.80;0.80;;;18.50;98.80;;;;;;4981131;28;20506;-54
2022/04/07 11:31:02;;;;;;;1.43;1.20;;;18.60;99.00;;;;;;4982972;28;20725;-52
2022/04/07 11:33:39;;;;;;;1.63;1.10;;;18.30;98.30;;;;;;4982186;28;20425;-51
2022/04/07 11:36:14;;;;;;;0.77;0.77;;;18.10;98.70;;;;;;4982265;28;20530;-53
2022/04/07 11:38:46;;;;;;;1.97;1.37;;;18.00;99.90;;;;;;4981853;28;20453;-54
2022/04/07 11:41:15;;;;;;;2.10;1.50;;;18.00;99.90;;;;;;4982183;28;20421;-56
2022/04/07 11:43:48;;;;;;;2.40;1.00;;;18.00;99.90;;;;;;4981990;28;20451;-55
2022/04/07 11:46:26;;;;;;;1.13;1.10;;;17.90;99.90;;;;;;4982138;28;20444;-50
2022/04/07 11:49:00;;;;;;;0.80;0.80;;;18.00;99.90;;;;;;4981995;28;20627;-52
2022/04/07 11:51:28;;;;;;;2.07;0.90;;;18.00;99.90;;;;;;4981698;28;20421;-53
2022/04/07 11:53:57;;;;;;;1.93;1.60;;;18.00;99.90;;;;;;4982266;28;20464;-52
2022/04/07 11:56:27;;;;;;;1.03;0.67;;;18.20;99.50;;;;;;4982566;28;20422;-53
2022/04/07 11:59:07;;;;;;;0.90;0.60;;;18.30;98.40;;;;;;4983389;28;20430;-53
2022/04/07 12:01:40;;;;;;;1.17;1.03;;;18.30;98.80;;;;;;4981507;28;20436;-54
2022/04/07 12:04:09;;;;;;;0.90;0.80;;;18.30;99.50;;;;;;4982000;28;20783;-54
2022/04/07 12:06:44;;;;;;;1.20;0.90;;;18.30;99.20;;;;;;4981523;28;20498;-55
2022/04/07 12:09:14;;;;;;;1.23;0.70;;;18.50;99.90;;;;;;4982006;28;20410;-52
2022/04/07 12:11:42;;;;;;;1.07;0.90;;;18.40;99.90;;;;;;4981495;28;20499;-57
2022/04/07 12:14:14;;;;;;;0.80;0.80;;;18.20;99.90;;;;;;4981436;28;20703;-50
2022/04/07 12:16:48;;;;;;;1.23;1.10;;;18.00;99.90;;;;;;4981353;28;20448;-52
2022/04/07 12:19:18;;;;;;;1.63;1.43;;;18.10;99.90;;;;;;4981316;28;20765;-50
2022/04/07 12:21:54;;;;;;;1.67;1.20;;;18.20;99.90;;;;;;4981747;28;20553;-53
2022/04/07 12:24:21;;;;;;;0.73;0.73;;;18.20;99.90;;;;;;4981148;28;20462;-51
2022/04/07 12:26:52;;;;;;;1.47;0.90;;;18.20;99.50;;;;;;4981813;28;20673;-51
2022/04/07 12:29:21;;;;;;;1.23;1.13;;;18.40;99.10;;;;;;4981323;28;20503;-53
2022/04/07 12:32:10;;;;;;;0.80;0.80;;;18.60;98.90;;;;;;4981750;28;20407;-55
2022/04/07 12:34:49;;;;;;;1.40;1.10;;;18.50;99.50;;;;;;4981329;28;20424;-54
2022/04/07 12:37:30;;;;;;;1.33;1.00;;;18.50;98.70;;;;;;4981699;28;20700;-55
2022/04/07 12:39:57;;;;;;;2.93;1.07;;;18.60;98.90;;;;;;4981785;28;20435;-52
2022/04/07 12:42:24;;;;;;;2.87;0.90;;;18.90;98.40;;;;;;4981792;28;20435;-53
2022/04/07 12:45:07;;;;;;;3.17;1.10;;;19.00;98.20;;;;;;4981461;28;20542;-51
2022/04/07 12:47:35;;;;;;;1.03;1.03;;;18.90;96.60;;;;;;4980678;28;20422;-51
2022/04/07 12:50:04;;;;;;;2.37;1.00;;;18.90;96.20;;;;;;4980752;28;20761;-55
2022/04/07 12:52:41;;;;;;;0.90;0.90;;;19.10;95.80;;;;;;4980928;28;20406;-53
2022/04/07 12:55:11;;;;;;;1.30;1.20;;;19.40;96.00;;;;;;4981465;28;20480;-55
2022/04/07 12:57:45;;;;;;;1.33;0.97;;;19.50;95.00;;;;;;4980751;28;20435;-51
2022/04/07 13:00:31;;;;;;;0.90;0.90;;;19.60;95.10;;;;;;4981098;28;20785;-54
2022/04/07 13:03:02;;;;;;;0.80;0.80;;;19.50;94.90;;;;;;4980724;28;20467;-55
2022/04/07 13:05:39;;;;;;;1.17;1.03;;;19.50;94.90;;;;;;4980792;28;20435;-53